Time;durP1;ratioP1;P1;durP2;ratioP2;P2;SDS_P1;SDS_P2;PMS_P1;PMS_P2;Temp;Humidity;BMP_temperature;BMP_pressure;BME280_temperature;BME280_humidity;BME280_pressure;Samples;Min_cycle;Max_cycle;Signal;HPM_P1;HPM_P2
2023/04/25 00:00:40;;;;;;;3.28;1.50;;;;;;;;;;5134996;27;20031;-85
2023/04/25 00:03:06;;;;;;;2.78;1.23;;;;;;;;;;5133503;27;20032;-85
2023/04/25 00:05:31;;;;;;;3.58;1.70;;;;;;;;;;5135092;27;20051;-85
2023/04/25 00:07:57;;;;;;;3.38;1.55;;;;;;;;;;5116632;27;20397;-85
2023/04/25 00:10:23;;;;;;;3.60;1.40;;;;;;;;;;5116532;27;20043;-85
2023/04/25 00:12:49;;;;;;;3.78;1.50;;;;;;;;;;5117061;27;20065;-85
2023/04/25 00:15:14;;;;;;;4.53;1.65;;;;;;;;;;5116861;27;20035;-85
2023/04/25 00:17:39;;;;;;;5.53;1.90;;;;;;;;;;5133431;27;20027;-86
2023/04/25 00:20:08;;;;;;;3.15;1.70;;;;;;;;;;5133474;27;20039;-85
2023/04/25 00:22:34;;;;;;;2.75;1.38;;;;;;;;;;5133342;27;20019;-85
2023/04/25 00:25:00;;;;;;;5.63;1.63;;;;;;;;;;5134830;27;20023;-87
2023/04/25 00:27:26;;;;;;;6.93;1.50;;;;;;;;;;5099403;27;20042;-86
2023/04/25 00:29:52;;;;;;;4.13;1.45;;;;;;;;;;5133540;27;20434;-86
2023/04/25 00:32:17;;;;;;;6.57;1.70;;;;;;;;;;5133146;27;20130;-86
2023/04/25 00:34:42;;;;;;;2.97;1.48;;;;;;;;;;5115977;28;20027;-87
2023/04/25 00:37:08;;;;;;;3.65;1.50;;;;;;;;;;5116032;27;20134;-85
2023/04/25 00:39:33;;;;;;;3.40;1.50;;;;;;;;;;5134455;27;20027;-86
2023/04/25 00:41:59;;;;;;;3.63;1.70;;;;;;;;;;5134314;27;20034;-85
2023/04/25 00:44:26;;;;;;;4.20;1.70;;;;;;;;;;5115915;28;20042;-85
2023/04/25 00:46:52;;;;;;;4.00;1.67;;;;;;;;;;5133220;28;20023;-86
2023/04/25 00:49:17;;;;;;;4.18;1.63;;;;;;;;;;5115873;28;20114;-87
2023/04/25 00:51:46;;;;;;;3.83;1.70;;;;;;;;;;5134278;28;20019;-86
2023/04/25 00:54:12;;;;;;;4.88;1.60;;;;;;;;;;5133222;28;20023;-87
2023/04/25 00:56:38;;;;;;;4.82;1.90;;;;;;;;;;5133343;28;20087;-87
2023/04/25 00:59:03;;;;;;;4.72;1.63;;;;;;;;;;5134304;28;20088;-87
2023/04/25 01:01:31;;;;;;;3.63;1.60;;;;;;;;;;5132986;28;20039;-86
2023/04/25 01:03:58;;;;;;;4.65;1.83;;;;;;;;;;5117903;27;20473;-86
2023/04/25 01:06:24;;;;;;;3.45;1.33;;;;;;;;;;5136980;27;20462;-85
2023/04/25 01:08:50;;;;;;;7.93;1.92;;;;;;;;;;5137152;27;20081;-85
2023/04/25 01:11:15;;;;;;;3.65;1.48;;;;;;;;;;5137002;27;20022;-86
2023/04/25 01:13:40;;;;;;;4.03;2.10;;;;;;;;;;5138243;27;20071;-85
2023/04/25 01:16:06;;;;;;;7.30;1.90;;;;;;;;;;5138403;27;20167;-86
2023/04/25 01:18:31;;;;;;;4.78;1.65;;;;;;;;;;5136801;27;20458;-85
2023/04/25 01:21:03;;;;;;;7.57;2.00;;;;;;;;;;5136862;27;20027;-87
2023/04/25 01:23:29;;;;;;;5.00;2.00;;;;;;;;;;5136895;27;20023;-85
2023/04/25 01:25:54;;;;;;;5.25;1.50;;;;;;;;;;5136922;27;20069;-85
2023/04/25 01:28:20;;;;;;;3.78;1.55;;;;;;;;;;5119845;27;20031;-85
2023/04/25 01:30:46;;;;;;;4.75;1.98;;;;;;;;;;5136612;27;20442;-85
2023/04/25 01:33:13;;;;;;;8.32;2.42;;;;;;;;;;5136858;27;20084;-86
2023/04/25 01:35:40;;;;;;;4.00;1.73;;;;;;;;;;5119480;27;20034;-85
2023/04/25 01:38:05;;;;;;;4.03;1.77;;;;;;;;;;5136485;27;20023;-86
2023/04/25 01:40:31;;;;;;;6.63;1.80;;;;;;;;;;5137736;27;20038;-86
2023/04/25 01:42:57;;;;;;;4.20;1.88;;;;;;;;;;5136253;27;20158;-85
2023/04/25 01:45:22;;;;;;;7.63;1.80;;;;;;;;;;5139146;27;20393;-86
2023/04/25 01:47:49;;;;;;;3.72;1.45;;;;;;;;;;5119291;27;20121;-85
2023/04/25 01:50:15;;;;;;;5.22;1.85;;;;;;;;;;5137785;27;20059;-85
2023/04/25 01:52:41;;;;;;;4.53;1.98;;;;;;;;;;5136606;27;20027;-85
2023/04/25 01:55:07;;;;;;;2.53;1.70;;;;;;;;;;5119014;27;20038;-85
2023/04/25 01:57:32;;;;;;;4.85;1.92;;;;;;;;;;5136121;27;20378;-85
2023/04/25 01:59:59;;;;;;;4.63;1.85;;;;;;;;;;5118952;27;20106;-85
2023/04/25 02:02:25;;;;;;;2.30;1.60;;;;;;;;;;5136009;27;20096;-85
2023/04/25 02:04:51;;;;;;;4.28;1.85;;;;;;;;;;5137408;27;20106;-85
2023/04/25 02:07:16;;;;;;;5.57;1.83;;;;;;;;;;5136403;27;20447;-85
2023/04/25 02:09:42;;;;;;;5.43;1.42;;;;;;;;;;5137646;27;20076;-85
2023/04/25 02:12:09;;;;;;;4.47;1.50;;;;;;;;;;5119018;27;20055;-85
2023/04/25 02:14:34;;;;;;;3.70;1.50;;;;;;;;;;5118224;27;20058;-85
2023/04/25 02:17:00;;;;;;;5.00;1.90;;;;;;;;;;5136900;27;20485;-85
2023/04/25 02:19:25;;;;;;;2.92;1.30;;;;;;;;;;5118547;27;20062;-85
2023/04/25 02:21:51;;;;;;;3.10;1.60;;;;;;;;;;5137422;27;20034;-85
2023/04/25 02:24:16;;;;;;;8.23;1.98;;;;;;;;;;5135710;27;20023;-85
2023/04/25 02:26:41;;;;;;;4.45;2.00;;;;;;;;;;5137092;27;20435;-85
2023/04/25 02:29:07;;;;;;;3.65;1.40;;;;;;;;;;5135930;27;20031;-85
2023/04/25 02:31:32;;;;;;;5.30;1.73;;;;;;;;;;5136944;27;20126;-85
2023/04/25 02:33:57;;;;;;;5.35;1.50;;;;;;;;;;5136740;27;20035;-85
2023/04/25 02:36:23;;;;;;;5.28;1.88;;;;;;;;;;5135680;27;20080;-85
2023/04/25 02:38:50;;;;;;;3.50;1.52;;;;;;;;;;5118733;27;20159;-86
2023/04/25 02:41:15;;;;;;;2.63;1.50;;;;;;;;;;5135558;27;20015;-85
2023/04/25 02:43:40;;;;;;;3.10;1.67;;;;;;;;;;5117813;27;20062;-86
2023/04/25 02:46:06;;;;;;;6.15;2.00;;;;;;;;;;5135382;27;20058;-85
2023/04/25 02:48:32;;;;;;;6.03;1.70;;;;;;;;;;5135318;27;20030;-85
2023/04/25 02:50:57;;;;;;;2.85;1.30;;;;;;;;;;5136879;27;20113;-85
2023/04/25 02:53:22;;;;;;;3.10;1.65;;;;;;;;;;5135276;27;20028;-85
2023/04/25 02:55:48;;;;;;;6.47;1.52;;;;;;;;;;5118857;27;20101;-85
2023/04/25 02:58:14;;;;;;;3.47;1.45;;;;;;;;;;5144384;27;20019;-85
2023/04/25 03:00:40;;;;;;;3.97;1.48;;;;;;;;;;5149751;27;20031;-85
2023/04/25 03:03:05;;;;;;;3.72;1.23;;;;;;;;;;5141091;27;20034;-85
2023/04/25 03:05:30;;;;;;;6.15;1.48;;;;;;;;;;5144856;27;20046;-86
2023/04/25 03:07:56;;;;;;;3.20;1.45;;;;;;;;;;5160455;27;20027;-83
2023/04/25 03:10:21;;;;;;;3.63;2.00;;;;;;;;;;5134451;27;20034;-85
2023/04/25 03:12:46;;;;;;;2.88;1.60;;;;;;;;;;5160200;27;20088;-85
2023/04/25 03:15:12;;;;;;;3.15;1.60;;;;;;;;;;5153924;27;20031;-85
2023/04/25 03:17:37;;;;;;;4.43;1.60;;;;;;;;;;5146111;27;20027;-85
2023/04/25 03:20:04;;;;;;;4.03;1.45;;;;;;;;;;5132252;27;20027;-86
2023/04/25 03:22:29;;;;;;;3.63;1.23;;;;;;;;;;5132183;27;20122;-86
2023/04/25 03:24:55;;;;;;;5.22;1.70;;;;;;;;;;5146848;27;20483;-86
2023/04/25 03:27:20;;;;;;;5.60;1.52;;;;;;;;;;5150888;27;20121;-86
2023/04/25 03:29:45;;;;;;;3.03;1.33;;;;;;;;;;5141213;27;20055;-85
2023/04/25 03:32:11;;;;;;;2.33;1.40;;;;;;;;;;5135340;27;20027;-86
2023/04/25 03:34:36;;;;;;;4.03;1.40;;;;;;;;;;5134448;27;20027;-86
2023/04/25 03:37:02;;;;;;;4.50;1.52;;;;;;;;;;5117163;27;20026;-86
2023/04/25 03:39:27;;;;;;;3.72;1.40;;;;;;;;;;5134444;27;20027;-86
2023/04/25 03:41:52;;;;;;;3.22;1.40;;;;;;;;;;5133549;27;20534;-85
2023/04/25 03:44:18;;;;;;;9.55;1.80;;;;;;;;;;5134761;27;20058;-86
2023/04/25 03:46:43;;;;;;;4.25;1.30;;;;;;;;;;5136588;27;20071;-86
2023/04/25 03:49:09;;;;;;;3.03;1.58;;;;;;;;;;5135922;27;20038;-86
2023/04/25 03:51:34;;;;;;;2.75;1.50;;;;;;;;;;5134800;27;20130;-84
2023/04/25 03:53:59;;;;;;;3.70;1.30;;;;;;;;;;5134251;27;20031;-83
2023/04/25 03:56:25;;;;;;;3.63;1.70;;;;;;;;;;5134186;27;20023;-82
2023/04/25 03:58:50;;;;;;;5.07;1.50;;;;;;;;;;5133816;27;20034;-82
2023/04/25 04:01:15;;;;;;;2.85;1.30;;;;;;;;;;5135190;27;20031;-82
2023/04/25 04:03:41;;;;;;;4.00;1.30;;;;;;;;;;5135032;27;20539;-83
2023/04/25 04:06:07;;;;;;;4.75;1.50;;;;;;;;;;5133734;27;20027;-82
2023/04/25 04:08:33;;;;;;;4.32;1.45;;;;;;;;;;5116553;27;20446;-82
2023/04/25 04:10:59;;;;;;;5.22;1.50;;;;;;;;;;5133622;27;20043;-82
2023/04/25 04:13:28;;;;;;;3.45;1.67;;;;;;;;;;5133602;27;20037;-81
2023/04/25 04:15:53;;;;;;;6.60;1.60;;;;;;;;;;5133638;27;20565;-81
2023/04/25 04:18:19;;;;;;;6.28;1.88;;;;;;;;;;5116920;27;20102;-82
2023/04/25 04:20:44;;;;;;;4.32;1.80;;;;;;;;;;5135279;27;20027;-85
2023/04/25 04:23:10;;;;;;;11.88;1.90;;;;;;;;;;5141351;27;20027;-80
2023/04/25 04:25:36;;;;;;;5.07;1.77;;;;;;;;;;5146637;27;20042;-82
2023/04/25 04:28:01;;;;;;;3.30;1.27;;;;;;;;;;5149323;27;20023;-80
2023/04/25 04:30:30;;;;;;;2.08;1.30;;;;;;;;;;5136753;27;20091;-83
2023/04/25 04:32:56;;;;;;;6.28;1.85;;;;;;;;;;5137581;27;20072;-81
2023/04/25 04:35:23;;;;;;;5.75;1.67;;;;;;;;;;5140944;27;20031;-83
2023/04/25 04:37:48;;;;;;;3.85;1.48;;;;;;;;;;5123815;28;20023;-86
2023/04/25 04:40:17;;;;;;;8.60;2.50;;;;;;;;;;5116449;27;20175;-85
2023/04/25 04:42:45;;;;;;;10.60;1.92;;;;;;;;;;5116517;28;20111;-86
2023/04/25 04:45:11;;;;;;;10.43;2.83;;;;;;;;;;5133285;28;20019;-83
2023/04/25 04:47:36;;;;;;;13.02;2.75;;;;;;;;;;5116117;28;20485;-84
2023/04/25 04:50:03;;;;;;;14.65;2.80;;;;;;;;;;5133922;28;20031;-82
2023/04/25 04:52:29;;;;;;;11.75;3.67;;;;;;;;;;5115441;28;20019;-82
2023/04/25 04:54:55;;;;;;;23.90;5.05;;;;;;;;;;5132842;28;20076;-84
2023/04/25 04:57:20;;;;;;;17.23;4.25;;;;;;;;;;5115439;28;20023;-84
2023/04/25 04:59:45;;;;;;;14.40;3.63;;;;;;;;;;5133732;28;20034;-84
2023/04/25 05:02:11;;;;;;;15.45;3.65;;;;;;;;;;5134039;28;20067;-85
2023/04/25 05:04:36;;;;;;;16.10;3.97;;;;;;;;;;5132736;28;20023;-85
2023/04/25 05:07:02;;;;;;;14.63;4.07;;;;;;;;;;5132821;28;20054;-84
2023/04/25 05:09:27;;;;;;;12.90;3.83;;;;;;;;;;5134225;28;20035;-85
2023/04/25 05:11:52;;;;;;;15.70;3.40;;;;;;;;;;5132560;28;20027;-84
2023/04/25 05:14:18;;;;;;;12.82;3.75;;;;;;;;;;5134394;28;20027;-84
2023/04/25 05:16:44;;;;;;;12.30;2.95;;;;;;;;;;5133162;28;20027;-85
2023/04/25 05:19:09;;;;;;;9.38;3.05;;;;;;;;;;5133337;28;20034;-85
2023/04/25 05:21:35;;;;;;;11.52;2.78;;;;;;;;;;5099456;28;20038;-84
2023/04/25 05:24:01;;;;;;;7.53;2.80;;;;;;;;;;5134779;28;20031;-84
2023/04/25 05:26:30;;;;;;;7.50;2.83;;;;;;;;;;5133039;28;20027;-84
2023/04/25 05:28:58;;;;;;;7.57;2.60;;;;;;;;;;5132798;28;20023;-84
2023/04/25 05:31:24;;;;;;;8.15;2.97;;;;;;;;;;5132801;28;20550;-84
2023/04/25 05:33:49;;;;;;;10.10;2.63;;;;;;;;;;5133033;28;20027;-86
2023/04/25 05:36:15;;;;;;;5.70;2.10;;;;;;;;;;5132943;28;20038;-86
2023/04/25 05:38:40;;;;;;;7.30;2.53;;;;;;;;;;5115712;28;20080;-85
2023/04/25 05:41:05;;;;;;;10.73;2.85;;;;;;;;;;5132586;28;20422;-85
2023/04/25 05:43:31;;;;;;;5.68;2.50;;;;;;;;;;5132748;28;20044;-85
2023/04/25 05:45:56;;;;;;;5.68;2.03;;;;;;;;;;5133198;28;20393;-85
2023/04/25 05:48:22;;;;;;;7.82;2.60;;;;;;;;;;5134240;27;20027;-85
2023/04/25 05:50:47;;;;;;;4.28;1.80;;;;;;;;;;5125542;27;20055;-85
2023/04/25 05:53:12;;;;;;;6.72;2.50;;;;;;;;;;5137125;27;20466;-85
2023/04/25 05:55:38;;;;;;;7.15;2.00;;;;;;;;;;5136401;27;20538;-85
2023/04/25 05:58:05;;;;;;;5.88;2.08;;;;;;;;;;5138662;27;20027;-84
2023/04/25 06:00:30;;;;;;;5.43;2.65;;;;;;;;;;5137161;27;20098;-85
2023/04/25 06:02:56;;;;;;;4.47;1.77;;;;;;;;;;5136121;27;20102;-85
2023/04/25 06:05:21;;;;;;;7.53;1.90;;;;;;;;;;5136251;27;20027;-86
2023/04/25 06:07:46;;;;;;;6.05;2.25;;;;;;;;;;5136066;27;20027;-85
2023/04/25 06:10:12;;;;;;;6.95;1.80;;;;;;;;;;5118970;27;20114;-85
2023/04/25 06:12:38;;;;;;;7.75;1.50;;;;;;;;;;5136239;27;20034;-86
2023/04/25 06:15:05;;;;;;;5.05;1.73;;;;;;;;;;5136281;27;20389;-86
2023/04/25 06:17:30;;;;;;;6.00;2.50;;;;;;;;;;5135881;27;20027;-85
2023/04/25 06:19:55;;;;;;;4.30;1.88;;;;;;;;;;5101781;27;20027;-86
2023/04/25 06:22:21;;;;;;;4.20;1.58;;;;;;;;;;5118560;27;20087;-85
2023/04/25 06:24:46;;;;;;;5.78;1.85;;;;;;;;;;5101617;27;20027;-85
2023/04/25 06:27:11;;;;;;;2.95;1.67;;;;;;;;;;5135972;27;20157;-85
2023/04/25 06:29:37;;;;;;;2.47;1.40;;;;;;;;;;5137375;27;20034;-85
2023/04/25 06:32:02;;;;;;;2.65;1.73;;;;;;;;;;5102658;27;20023;-85
2023/04/25 06:34:28;;;;;;;3.83;1.60;;;;;;;;;;5136223;27;20055;-85
2023/04/25 06:36:53;;;;;;;10.32;1.88;;;;;;;;;;5136523;27;20027;-84
2023/04/25 06:39:19;;;;;;;4.30;1.83;;;;;;;;;;5136812;27;20042;-85
2023/04/25 06:41:45;;;;;;;2.33;1.67;;;;;;;;;;5135739;27;20031;-85
2023/04/25 06:44:10;;;;;;;3.78;1.30;;;;;;;;;;5136476;27;20077;-87
2023/04/25 06:46:37;;;;;;;3.92;1.70;;;;;;;;;;5136744;27;20046;-86
2023/04/25 06:49:02;;;;;;;3.13;1.45;;;;;;;;;;5118514;27;20019;-87
2023/04/25 06:51:29;;;;;;;2.78;1.52;;;;;;;;;;5118088;27;20031;-87
2023/04/25 06:53:54;;;;;;;5.32;1.92;;;;;;;;;;5135290;27;20158;-87
2023/04/25 06:56:21;;;;;;;3.35;1.70;;;;;;;;;;5135623;27;20039;-88
2023/04/25 06:58:46;;;;;;;3.78;1.67;;;;;;;;;;5136578;27;20393;-87
2023/04/25 07:01:12;;;;;;;3.53;1.40;;;;;;;;;;5135280;27;20035;-87
2023/04/25 07:03:37;;;;;;;2.70;1.40;;;;;;;;;;5136362;27;20032;-86
2023/04/25 07:06:03;;;;;;;3.17;1.35;;;;;;;;;;5136325;27;20028;-86
2023/04/25 07:08:29;;;;;;;3.75;1.80;;;;;;;;;;5135587;27;20038;-86
2023/04/25 07:10:54;;;;;;;1.88;1.20;;;;;;;;;;5136182;27;20023;-85
2023/04/25 07:13:20;;;;;;;2.80;1.40;;;;;;;;;;5135463;27;20089;-86
2023/04/25 07:15:47;;;;;;;3.70;1.63;;;;;;;;;;5135169;27;20031;-86
2023/04/25 07:18:13;;;;;;;2.08;1.10;;;;;;;;;;5136024;27;20023;-86
2023/04/25 07:20:38;;;;;;;3.83;1.30;;;;;;;;;;5136221;27;20027;-87
2023/04/25 07:23:04;;;;;;;3.72;1.15;;;;;;;;;;5135657;27;20020;-86
2023/04/25 07:25:30;;;;;;;2.10;1.30;;;;;;;;;;5134629;27;20035;-86
2023/04/25 07:27:56;;;;;;;3.22;1.45;;;;;;;;;;5135791;27;20027;-86
2023/04/25 07:30:21;;;;;;;4.47;1.50;;;;;;;;;;5134783;27;20149;-86
2023/04/25 07:32:47;;;;;;;3.67;1.40;;;;;;;;;;5138049;27;20337;-86
2023/04/25 07:35:12;;;;;;;3.15;1.40;;;;;;;;;;5136468;27;20038;-86
2023/04/25 07:37:38;;;;;;;3.17;1.55;;;;;;;;;;5136035;27;20027;-86
2023/04/25 07:40:04;;;;;;;1.90;1.17;;;;;;;;;;5136178;27;20027;-86
2023/04/25 07:42:29;;;;;;;3.72;1.65;;;;;;;;;;5134366;27;20114;-86
2023/04/25 07:44:55;;;;;;;2.88;1.30;;;;;;;;;;5135311;27;20096;-84
2023/04/25 07:47:20;;;;;;;3.08;1.23;;;;;;;;;;5135620;27;20035;-85
2023/04/25 07:49:47;;;;;;;5.68;1.30;;;;;;;;;;5134069;27;20066;-85
2023/04/25 07:52:12;;;;;;;2.42;1.10;;;;;;;;;;5140442;27;20019;-85
2023/04/25 07:54:37;;;;;;;3.38;1.23;;;;;;;;;;5139821;27;20030;-86
2023/04/25 07:57:03;;;;;;;4.13;1.48;;;;;;;;;;5135450;27;20106;-86
2023/04/25 07:59:28;;;;;;;3.05;1.48;;;;;;;;;;5133917;27;20027;-85
2023/04/25 08:01:54;;;;;;;2.97;1.38;;;;;;;;;;5117280;27;20027;-86
2023/04/25 08:04:19;;;;;;;2.92;1.27;;;;;;;;;;5134017;27;20035;-84
2023/04/25 08:06:45;;;;;;;1.98;1.10;;;;;;;;;;5133785;27;20454;-85
2023/04/25 08:09:11;;;;;;;3.15;1.45;;;;;;;;;;5133613;27;20031;-86
2023/04/25 08:11:36;;;;;;;4.80;1.23;;;;;;;;;;5133539;27;20424;-85
2023/04/25 08:14:02;;;;;;;2.50;1.10;;;;;;;;;;5133388;27;20035;-85
2023/04/25 08:16:28;;;;;;;1.88;1.20;;;;;;;;;;5133678;27;20462;-85
2023/04/25 08:18:53;;;;;;;3.25;1.20;;;;;;;;;;5116467;27;20038;-86
2023/04/25 08:21:19;;;;;;;4.15;1.80;;;;;;;;;;5133832;27;20027;-86
2023/04/25 08:23:44;;;;;;;2.17;1.20;;;;;;;;;;5116438;27;20092;-86
2023/04/25 08:26:10;;;;;;;2.00;1.13;;;;;;;;;;5133431;27;20091;-86
2023/04/25 08:28:35;;;;;;;3.20;1.40;;;;;;;;;;5133655;27;20031;-86
2023/04/25 08:31:00;;;;;;;3.60;1.33;;;;;;;;;;5134922;27;20099;-86
2023/04/25 08:33:26;;;;;;;2.78;1.13;;;;;;;;;;5133251;27;20015;-85
2023/04/25 08:35:51;;;;;;;3.22;1.30;;;;;;;;;;5134901;27;20034;-85
2023/04/25 08:38:17;;;;;;;3.78;1.30;;;;;;;;;;5134832;27;20035;-85
2023/04/25 08:40:43;;;;;;;2.65;1.15;;;;;;;;;;5133294;27;20088;-85
2023/04/25 08:43:11;;;;;;;2.25;1.00;;;;;;;;;;5133542;27;20043;-86
2023/04/25 08:45:42;;;;;;;2.17;1.20;;;;;;;;;;5134220;28;20051;-86
2023/04/25 08:48:11;;;;;;;3.30;1.17;;;;;;;;;;5116716;28;20046;-86
2023/04/25 08:50:52;;;;;;;2.47;1.13;;;;;;;;;;5116230;28;20079;-86
2023/04/25 08:53:29;;;;;;;2.20;1.20;;;;;;;;;;5134451;28;20028;-86
2023/04/25 08:55:56;;;;;;;3.30;1.20;;;;;;;;;;5134540;28;20027;-86
2023/04/25 08:58:21;;;;;;;2.47;1.20;;;;;;;;;;5133281;28;20015;-86
2023/04/25 09:00:48;;;;;;;3.80;1.50;;;;;;;;;;5116182;28;20034;-86
2023/04/25 09:03:14;;;;;;;2.80;1.20;;;;;;;;;;5133340;28;20027;-86
2023/04/25 09:05:41;;;;;;;1.70;0.98;;;;;;;;;;5133232;28;20146;-86
2023/04/25 09:08:06;;;;;;;2.05;1.20;;;;;;;;;;5133512;28;20024;-84
2023/04/25 09:10:32;;;;;;;2.88;1.17;;;;;;;;;;5116832;28;20113;-86
2023/04/25 09:13:05;;;;;;;1.90;1.08;;;;;;;;;;5133735;28;20056;-86
2023/04/25 09:15:31;;;;;;;2.88;1.05;;;;;;;;;;5132967;28;20049;-85
2023/04/25 09:17:58;;;;;;;3.22;1.30;;;;;;;;;;5133585;28;20053;-85
2023/04/25 09:20:24;;;;;;;5.15;1.48;;;;;;;;;;5133452;28;20019;-86
2023/04/25 09:23:01;;;;;;;5.20;1.48;;;;;;;;;;5116639;28;20054;-86
2023/04/25 09:25:26;;;;;;;2.22;0.90;;;;;;;;;;5136006;27;20102;-86
2023/04/25 09:27:53;;;;;;;3.05;1.30;;;;;;;;;;5137476;27;20107;-85
2023/04/25 09:30:19;;;;;;;0.93;0.80;;;;;;;;;;5137053;27;20106;-85
2023/04/25 09:32:45;;;;;;;1.65;1.00;;;;;;;;;;5119881;27;20102;-86
2023/04/25 09:35:11;;;;;;;2.45;1.00;;;;;;;;;;5136781;27;20524;-85
2023/04/25 09:37:36;;;;;;;2.53;1.20;;;;;;;;;;5137144;27;20042;-86
2023/04/25 09:40:05;;;;;;;3.42;1.42;;;;;;;;;;5138301;27;20023;-86
2023/04/25 09:42:31;;;;;;;3.03;1.10;;;;;;;;;;5137382;27;20464;-85
2023/04/25 09:44:58;;;;;;;1.73;1.05;;;;;;;;;;5137133;27;20038;-86
2023/04/25 09:47:25;;;;;;;2.67;1.10;;;;;;;;;;5136943;27;20023;-85
2023/04/25 09:49:52;;;;;;;3.08;1.13;;;;;;;;;;5136840;27;20041;-85
2023/04/25 09:52:20;;;;;;;1.65;1.20;;;;;;;;;;5138072;27;20044;-85
2023/04/25 09:54:46;;;;;;;3.63;1.40;;;;;;;;;;5124216;27;20033;-84
2023/04/25 09:57:17;;;;;;;2.15;1.27;;;;;;;;;;5151610;27;20031;-85
2023/04/25 09:59:50;;;;;;;1.83;1.15;;;;;;;;;;5151008;27;20043;-84
2023/04/25 10:02:20;;;;;;;1.88;1.10;;;;;;;;;;5151526;27;20015;-85
2023/04/25 10:04:52;;;;;;;2.53;1.15;;;;;;;;;;5150212;27;20039;-85
2023/04/25 10:07:18;;;;;;;2.33;1.20;;;;;;;;;;5146785;27;20019;-85
2023/04/25 10:09:47;;;;;;;3.10;1.20;;;;;;;;;;5143211;27;20543;-85
2023/04/25 10:12:13;;;;;;;3.58;1.10;;;;;;;;;;5142457;27;20026;-85
2023/04/25 10:14:38;;;;;;;3.20;1.00;;;;;;;;;;5143541;27;20035;-86
2023/04/25 10:17:04;;;;;;;1.85;1.38;;;;;;;;;;5144300;27;20058;-86
2023/04/25 10:19:30;;;;;;;1.45;1.02;;;;;;;;;;5145127;27;20027;-86
2023/04/25 10:22:12;;;;;;;3.97;1.33;;;;;;;;;;5145715;27;20031;-86
2023/04/25 10:24:39;;;;;;;2.28;1.10;;;;;;;;;;5150137;27;20027;-86
2023/04/25 10:27:05;;;;;;;2.58;0.98;;;;;;;;;;5136469;27;20054;-85
2023/04/25 10:29:30;;;;;;;1.73;0.90;;;;;;;;;;5138520;27;20054;-86
2023/04/25 10:31:56;;;;;;;1.70;0.90;;;;;;;;;;5136866;27;20030;-86
2023/04/25 10:34:41;;;;;;;1.45;0.95;;;;;;;;;;5119017;27;20031;-86
2023/04/25 10:37:11;;;;;;;2.33;1.20;;;;;;;;;;5118451;27;20019;-86
2023/04/25 10:39:39;;;;;;;1.80;1.10;;;;;;;;;;5135843;27;20030;-85
2023/04/25 10:42:04;;;;;;;0.75;0.75;;;;;;;;;;5136000;27;20042;-85
2023/04/25 10:44:30;;;;;;;2.88;1.25;;;;;;;;;;5137716;27;20501;-86
2023/04/25 10:47:03;;;;;;;1.35;1.00;;;;;;;;;;5121956;27;20055;-87
2023/04/25 10:49:41;;;;;;;1.58;1.00;;;;;;;;;;5137792;27;20029;-87
2023/04/25 10:52:25;;;;;;;2.13;0.90;;;;;;;;;;5135504;27;20054;-87
2023/04/25 10:54:58;;;;;;;1.23;0.88;;;;;;;;;;5135639;27;20439;-87
2023/04/25 10:57:28;;;;;;;1.88;1.05;;;;;;;;;;5135280;27;20481;-86
2023/04/25 10:59:53;;;;;;;4.15;1.02;;;;;;;;;;5136844;27;20028;-86
2023/04/25 11:02:19;;;;;;;2.00;0.95;;;;;;;;;;5135544;27;20401;-87
2023/04/25 11:04:45;;;;;;;3.00;1.02;;;;;;;;;;5118414;27;20038;-87
2023/04/25 11:07:31;;;;;;;1.55;1.00;;;;;;;;;;5136412;27;20047;-87
2023/04/25 11:09:57;;;;;;;3.15;1.13;;;;;;;;;;5117969;27;20054;-87
2023/04/25 11:12:24;;;;;;;1.90;1.10;;;;;;;;;;5135830;27;20027;-86
2023/04/25 11:14:50;;;;;;;5.93;1.20;;;;;;;;;;5118169;27;20110;-85
2023/04/25 11:17:15;;;;;;;0.85;0.77;;;;;;;;;;5140832;27;20122;-87
2023/04/25 11:19:40;;;;;;;1.13;0.60;;;;;;;;;;5146398;27;20033;-86
2023/04/25 11:22:07;;;;;;;3.05;1.10;;;;;;;;;;5151125;27;20103;-86
2023/04/25 11:24:35;;;;;;;1.90;0.90;;;;;;;;;;5149371;27;20051;-83
2023/04/25 11:27:04;;;;;;;1.52;0.75;;;;;;;;;;5126871;27;20039;-84
2023/04/25 11:29:30;;;;;;;2.15;0.93;;;;;;;;;;5143742;27;20098;-85
2023/04/25 11:32:00;;;;;;;1.13;0.90;;;;;;;;;;5136429;27;20030;-86
2023/04/25 11:34:25;;;;;;;1.88;0.90;;;;;;;;;;5117911;27;20027;-85
2023/04/25 11:36:52;;;;;;;1.65;1.10;;;;;;;;;;5117538;27;20023;-85
2023/04/25 11:39:18;;;;;;;3.97;1.08;;;;;;;;;;5117443;27;20038;-85
2023/04/25 11:41:43;;;;;;;2.08;1.00;;;;;;;;;;5135702;27;20038;-85
2023/04/25 11:44:09;;;;;;;2.83;1.30;;;;;;;;;;5100577;27;20063;-85
2023/04/25 11:46:35;;;;;;;2.00;0.95;;;;;;;;;;5135780;27;20390;-85
2023/04/25 11:49:00;;;;;;;3.05;1.25;;;;;;;;;;5133948;27;20038;-85
2023/04/25 11:51:26;;;;;;;3.28;1.25;;;;;;;;;;5116935;27;20015;-85
2023/04/25 11:53:51;;;;;;;1.45;0.95;;;;;;;;;;5134084;27;20477;-86
2023/04/25 11:56:17;;;;;;;5.03;1.35;;;;;;;;;;5134000;27;20027;-85
2023/04/25 11:58:58;;;;;;;5.85;1.60;;;;;;;;;;5139020;27;20152;-84
2023/04/25 12:01:27;;;;;;;2.25;1.05;;;;;;;;;;5119433;27;20028;-85
2023/04/25 12:03:52;;;;;;;2.15;1.15;;;;;;;;;;5133853;27;20023;-84
2023/04/25 12:06:18;;;;;;;4.82;1.50;;;;;;;;;;5134351;27;20042;-84
2023/04/25 12:09:03;;;;;;;3.58;1.10;;;;;;;;;;5134966;27;20027;-84
2023/04/25 12:11:36;;;;;;;5.28;1.38;;;;;;;;;;5133773;27;20136;-85
2023/04/25 12:14:03;;;;;;;1.50;1.17;;;;;;;;;;5133727;27;20023;-84
2023/04/25 12:16:28;;;;;;;3.15;1.30;;;;;;;;;;5133744;27;20105;-85
2023/04/25 12:18:54;;;;;;;3.63;1.20;;;;;;;;;;5133911;27;20115;-86
2023/04/25 12:21:20;;;;;;;2.08;1.27;;;;;;;;;;5133893;27;20042;-84
2023/04/25 12:23:46;;;;;;;3.47;1.30;;;;;;;;;;5134987;27;20481;-85
2023/04/25 12:26:11;;;;;;;1.77;1.00;;;;;;;;;;5134757;27;20111;-85
2023/04/25 12:28:36;;;;;;;1.98;1.30;;;;;;;;;;5133521;27;20027;-85
2023/04/25 12:31:04;;;;;;;1.42;0.80;;;;;;;;;;5133508;27;20366;-85
2023/04/25 12:33:37;;;;;;;2.97;1.30;;;;;;;;;;5133745;27;20011;-85
2023/04/25 12:36:08;;;;;;;1.60;1.20;;;;;;;;;;5133654;27;20023;-85
2023/04/25 12:38:36;;;;;;;4.68;1.02;;;;;;;;;;5133627;27;20407;-84
2023/04/25 12:41:02;;;;;;;1.85;1.02;;;;;;;;;;5133553;27;20027;-86
2023/04/25 12:43:27;;;;;;;5.82;1.20;;;;;;;;;;5116436;27;20051;-86
2023/04/25 12:45:54;;;;;;;2.88;1.30;;;;;;;;;;5133566;27;20491;-85
2023/04/25 12:48:20;;;;;;;2.55;0.98;;;;;;;;;;5116165;28;20496;-87
2023/04/25 12:50:49;;;;;;;4.22;1.30;;;;;;;;;;5133270;28;20023;-84
2023/04/25 12:53:18;;;;;;;3.25;1.40;;;;;;;;;;5134791;28;20107;-85
2023/04/25 12:55:46;;;;;;;4.63;1.83;;;;;;;;;;5133155;28;20028;-83
2023/04/25 12:58:12;;;;;;;4.00;1.40;;;;;;;;;;5134283;27;20042;-85
2023/04/25 13:00:38;;;;;;;6.10;1.35;;;;;;;;;;5138297;27;20495;-85
2023/04/25 13:03:04;;;;;;;4.15;1.60;;;;;;;;;;5137586;27;20024;-84
2023/04/25 13:05:30;;;;;;;7.32;1.33;;;;;;;;;;5141249;27;20039;-82
2023/04/25 13:07:55;;;;;;;7.30;1.30;;;;;;;;;;5120206;27;20031;-84
2023/04/25 13:10:21;;;;;;;3.88;1.02;;;;;;;;;;5120134;27;20023;-84
2023/04/25 13:12:46;;;;;;;5.78;1.30;;;;;;;;;;5137730;27;20076;-84
2023/04/25 13:15:11;;;;;;;3.63;1.30;;;;;;;;;;5137280;27;20481;-84
2023/04/25 13:17:38;;;;;;;2.38;1.35;;;;;;;;;;5137694;27;20028;-83
2023/04/25 13:20:08;;;;;;;5.10;1.35;;;;;;;;;;5137257;27;20027;-84
2023/04/25 13:22:34;;;;;;;6.22;1.58;;;;;;;;;;5120546;27;20031;-84
2023/04/25 13:24:59;;;;;;;3.60;1.17;;;;;;;;;;5138624;27;20417;-85
2023/04/25 13:27:25;;;;;;;2.67;1.00;;;;;;;;;;5138715;27;20076;-84
2023/04/25 13:29:50;;;;;;;1.65;1.10;;;;;;;;;;5138462;27;20027;-84
2023/04/25 13:32:16;;;;;;;3.15;1.50;;;;;;;;;;5119750;27;20028;-86
2023/04/25 13:34:41;;;;;;;1.77;1.10;;;;;;;;;;5103990;27;20027;-85
2023/04/25 13:37:06;;;;;;;4.32;1.80;;;;;;;;;;5136847;27;20034;-84
2023/04/25 13:39:32;;;;;;;1.95;1.10;;;;;;;;;;5119832;27;20036;-86
2023/04/25 13:41:57;;;;;;;2.05;1.00;;;;;;;;;;5136826;27;20041;-85
2023/04/25 13:44:22;;;;;;;5.88;1.00;;;;;;;;;;5119546;27;20047;-85
2023/04/25 13:46:48;;;;;;;3.65;1.20;;;;;;;;;;5140018;27;20023;-84
2023/04/25 13:49:13;;;;;;;1.25;1.10;;;;;;;;;;5136675;27;20048;-86
2023/04/25 13:51:40;;;;;;;5.80;1.30;;;;;;;;;;5138149;27;20466;-84
2023/04/25 13:54:05;;;;;;;2.40;0.98;;;;;;;;;;5119479;27;20488;-85
2023/04/25 13:56:31;;;;;;;3.53;1.10;;;;;;;;;;5139534;27;20043;-84
2023/04/25 13:58:57;;;;;;;3.33;1.35;;;;;;;;;;5139104;27;20395;-84
2023/04/25 14:01:22;;;;;;;5.10;1.23;;;;;;;;;;5145115;27;20049;-85
2023/04/25 14:03:47;;;;;;;1.08;0.90;;;;;;;;;;5145351;27;20077;-87
2023/04/25 14:06:13;;;;;;;3.45;1.20;;;;;;;;;;5136774;27;20027;-85
2023/04/25 14:08:39;;;;;;;2.13;1.08;;;;;;;;;;5138105;27;20405;-87
2023/04/25 14:11:04;;;;;;;2.80;1.02;;;;;;;;;;5136115;27;20027;-86
2023/04/25 14:13:30;;;;;;;3.47;1.10;;;;;;;;;;5138493;27;20043;-86
2023/04/25 14:15:55;;;;;;;2.30;0.90;;;;;;;;;;5137779;27;20042;-87
2023/04/25 14:18:21;;;;;;;3.58;1.30;;;;;;;;;;5137514;27;20485;-87
2023/04/25 14:20:46;;;;;;;3.53;1.15;;;;;;;;;;5137930;27;20402;-86
2023/04/25 14:23:12;;;;;;;3.45;1.55;;;;;;;;;;5138118;27;20116;-85
2023/04/25 14:25:37;;;;;;;2.92;1.10;;;;;;;;;;5136462;27;20037;-85
2023/04/25 14:28:03;;;;;;;1.40;0.93;;;;;;;;;;5135770;27;20110;-86
2023/04/25 14:30:29;;;;;;;6.30;1.20;;;;;;;;;;5136248;27;20027;-88
2023/04/25 14:32:54;;;;;;;7.57;1.02;;;;;;;;;;5135648;27;20039;-87
2023/04/25 14:35:20;;;;;;;1.92;0.90;;;;;;;;;;5135720;27;20113;-87
2023/04/25 14:37:45;;;;;;;1.15;0.95;;;;;;;;;;5135745;27;20084;-87